»·PEaware :: N973SE KSBP-KBFL

N973SE :: KSBP-KBFL

FLIGHT INFORMATION

Flight Status: Arrived
Operator: Privately registered:
United States
More flights under this callsign
Pilot: Stig E. (4778)
Aircraft: Unknown
(DA62)
More flights by this aircraft type
Origin: KSBP San Luis Co Regl
United States
Destination: KBFL Meadows
United States
More flights between these airports :: More routes between these airports
Route: FLW FASTO
File this flight plan on PilotEdge
Remarks:
Altitude:
(Current/Filed)
7,500ft
Speed:
(Current/Filed)
150kts
Departed: 28-Jun-18 12:47 AM
Arrived: 28-Jun-18 01:31 AM
Distance/Time
Traveled:
79nm/0:44
Distance/Time
To Go:
Arrived

Flight Plot

Page will automatically refresh every two minutes.

Flight plan parsing failed; only flown route is shown


Map Options




Map Legend


Flown Route
Filed Route
Departure Airport
Arrival Airport
Navaid (VOR, NDB)
Fix

Horizontal Profiles

Position Reports

Time Latitude Longitude Heading Altitude Ground
Speed
28-Jun-18 00:23 35.237404 -120.636669 304 204ft 0kts
28-Jun-18 00:24 35.237404 -120.636669 304 204ft 0kts
28-Jun-18 00:25 35.237404 -120.636669 304 204ft 0kts
28-Jun-18 00:26 35.237404 -120.636669 304 204ft 0kts
28-Jun-18 00:27 35.237404 -120.636669 304 204ft 0kts
28-Jun-18 00:28 35.237404 -120.636669 304 204ft 0kts
28-Jun-18 00:29 35.237404 -120.636669 304 204ft 0kts
28-Jun-18 00:30 35.237404 -120.636669 304 204ft 0kts
28-Jun-18 00:31 35.237404 -120.636669 304 204ft 0kts
28-Jun-18 00:32 35.237404 -120.636669 304 204ft 0kts
28-Jun-18 00:33 35.237404 -120.636669 304 204ft 0kts
28-Jun-18 00:34 35.237404 -120.636669 304 204ft 0kts
28-Jun-18 00:35 35.237404 -120.636669 304 204ft 0kts
28-Jun-18 00:36 35.237404 -120.636669 304 204ft 0kts
28-Jun-18 00:37 35.237404 -120.636669 304 204ft 0kts
28-Jun-18 00:38 35.237404 -120.636669 304 204ft 0kts
28-Jun-18 00:39 35.237404 -120.636669 304 204ft 0kts
28-Jun-18 00:40 35.237404 -120.636669 304 204ft 0kts
28-Jun-18 00:41 35.237261 -120.637342 222 201ft 0kts
28-Jun-18 00:42 35.237239 -120.637369 224 201ft 2kts
28-Jun-18 00:43 35.235094 -120.634885 125 211ft 15kts
28-Jun-18 00:44 35.233261 -120.632247 213 212ft 0kts
28-Jun-18 00:45 35.233261 -120.632247 213 212ft 0kts
28-Jun-18 00:46 35.233261 -120.632247 213 212ft 0kts
28-Jun-18 00:47 35.236416 -120.639259 304 209ft 88kts
28-Jun-18 00:48 35.248419 -120.662976 302 1408ft 84kts
28-Jun-18 00:49 35.237316 -120.682355 170 2651ft 101kts
28-Jun-18 00:50 35.219770 -120.657498 123 3831ft 104kts
28-Jun-18 00:51 35.207761 -120.625857 94 5049ft 105kts
28-Jun-18 00:52 35.203567 -120.590078 96 6257ft 108kts
28-Jun-18 00:53 35.198721 -120.553601 98 7433ft 113kts
28-Jun-18 00:54 35.191535 -120.503158 99 7508ft 175kts
28-Jun-18 00:55 35.182453 -120.442089 99 7504ft 186kts
28-Jun-18 00:56 35.173026 -120.379533 99 7505ft 187kts
28-Jun-18 00:57 35.163389 -120.317285 101 7505ft 187kts
28-Jun-18 00:58 35.153684 -120.254942 100 7507ft 187kts
28-Jun-18 00:59 35.144054 -120.192394 100 7508ft 187kts
28-Jun-18 01:00 35.134461 -120.130028 101 7505ft 184kts
28-Jun-18 01:01 35.125264 -120.070383 101 7505ft 177kts
28-Jun-18 01:02 35.116187 -120.011700 101 7504ft 176kts
28-Jun-18 01:03 35.107113 -119.953201 101 7503ft 175kts
28-Jun-18 01:04 35.098742 -119.894680 100 7502ft 175kts
28-Jun-18 01:05 35.100341 -119.836355 76 7501ft 172kts
28-Jun-18 01:06 35.110446 -119.779325 75 7500ft 171kts
28-Jun-18 01:07 35.121014 -119.722398 75 7485ft 172kts
28-Jun-18 01:08 35.131770 -119.665325 74 7457ft 173kts
28-Jun-18 01:09 35.142677 -119.607644 74 7429ft 174kts
28-Jun-18 01:10 35.153485 -119.550499 74 7519ft 172kts
28-Jun-18 01:11 35.164392 -119.492657 74 7501ft 176kts
28-Jun-18 01:12 35.175361 -119.434321 74 7501ft 176kts
28-Jun-18 01:13 35.186330 -119.375842 74 7501ft 176kts
28-Jun-18 01:14 35.197017 -119.317717 75 7499ft 176kts
28-Jun-18 01:15 35.207674 -119.259539 75 7329ft 175kts
28-Jun-18 01:16 35.218402 -119.201516 75 6906ft 174kts
28-Jun-18 01:17 35.229043 -119.144052 75 6499ft 172kts
28-Jun-18 01:18 35.239605 -119.086964 75 6102ft 171kts
28-Jun-18 01:19 35.250049 -119.030381 75 5511ft 170kts
28-Jun-18 01:20 35.260911 -118.974595 73 4822ft 164kts
28-Jun-18 01:21 35.270158 -118.927160 73 4796ft 140kts
28-Jun-18 01:22 35.278738 -118.882110 73 4799ft 133kts
28-Jun-18 01:23 35.302681 -118.884737 290 4273ft 138kts
28-Jun-18 01:24 35.320100 -118.917474 311 3647ft 107kts
28-Jun-18 01:25 35.340134 -118.943090 315 3048ft 103kts
28-Jun-18 01:26 35.360294 -118.967505 315 2478ft 99kts
28-Jun-18 01:27 35.379149 -118.990218 316 1959ft 96kts
28-Jun-18 01:28 35.397586 -119.012431 316 1457ft 91kts
28-Jun-18 01:29 35.415214 -119.033685 316 981ft 85kts
28-Jun-18 01:30 35.431599 -119.053514 316 538ft 75kts
28-Jun-18 01:31 35.440248 -119.062628 34 497ft 14kts
28-Jun-18 01:32 35.440442 -119.062336 57 497ft 0kts
28-Jun-18 01:33 35.437736 -119.058538 134 497ft 34kts
28-Jun-18 01:34 35.436649 -119.054425 232 497ft 0kts
28-Jun-18 01:35 35.436649 -119.054425 232 497ft 0kts
28-Jun-18 01:36 35.436649 -119.054425 232 497ft 0kts

Navigation Log

Ident Type
Flight plan parsing failed, navigation log unavailable